< < Back
Terminal Aerodrome Forecast


Current Version              Previous Versions:   1  2  3  4  5  6  7  8  9  

Terminal Aerodrome Forecast

122
FTUS44 KMRX 291121
TAFTYS
TAF
KTYS 291121Z 2912/3012 VRB03KT P6SM FEW100 BKN250
     FM291500 23006KT P6SM SCT050 BKN250
     FM300100 24003KT P6SM SCT040 BKN090
     FM300800 VRB03KT P6SM SCT050 BKN120=

Latest METAR

320
SAUS80 KWBC 291700 RRA
MTRTYS
METAR KTYS 291653Z 29004KT 10SM FEW060 SCT150 BKN250 28/21 A3020 RMK AO2
SLP216 T02830206 $


USA.gov is the U.S. government's official web portal to all federal, state and local government web resources and services.